createdAt,value
2019-04-06T00:04:52.273Z,42.74
2019-04-06T00:09:59.933Z,45.44
2019-04-06T00:15:07.635Z,41.58
2019-04-06T00:20:15.268Z,40.94
2019-04-06T00:25:22.986Z,42.62
2019-04-06T00:30:30.609Z,41.67
2019-04-06T00:35:38.300Z,41.10
2019-04-06T00:40:45.939Z,41.46
2019-04-06T00:45:53.619Z,42.69
2019-04-06T00:51:01.272Z,44.33
2019-04-06T00:56:08.925Z,42.80
2019-04-06T01:01:16.593Z,43.39
2019-04-06T01:06:24.273Z,41.47
2019-04-06T01:11:31.933Z,41.71
2019-04-06T01:16:39.620Z,46.84
2019-04-06T01:21:47.250Z,41.68
2019-04-06T01:26:54.968Z,37.94
2019-04-06T01:32:02.598Z,41.31
2019-04-06T01:37:10.324Z,39.27
2019-04-06T01:42:17.947Z,40.44
2019-04-06T01:47:25.765Z,40.23
2019-04-06T01:52:33.319Z,41.00
2019-04-06T01:57:41.075Z,42.52
2019-04-06T02:02:48.628Z,41.14
2019-04-06T02:07:56.386Z,39.21
2019-04-06T02:13:04.017Z,39.21
2019-04-06T02:18:11.669Z,38.81
2019-04-06T02:23:19.291Z,38.21
2019-04-06T02:28:26.999Z,41.36
2019-04-06T02:33:34.595Z,39.61
2019-04-06T02:38:42.256Z,40.22
2019-04-06T02:43:49.871Z,39.51
2019-04-06T02:48:57.553Z,43.65
2019-04-06T02:54:05.161Z,40.33
2019-04-06T02:59:12.822Z,38.54
2019-04-06T03:04:20.444Z,36.69
2019-04-06T03:09:28.106Z,39.51
2019-04-06T03:14:35.729Z,42.16
2019-04-06T03:19:43.431Z,37.12
2019-04-06T03:24:51.069Z,41.84
2019-04-06T03:29:59.230Z,38.16
2019-04-06T03:35:05.965Z,37.03
2019-04-06T03:40:13.632Z,42.74
2019-04-06T03:45:21.237Z,38.39
2019-04-06T03:50:28.900Z,38.37
2019-04-06T03:55:36.457Z,38.33
2019-04-06T04:00:44.103Z,39.34
2019-04-06T04:05:51.712Z,44.18
2019-04-06T04:10:59.503Z,37.02
2019-04-06T04:16:06.902Z,41.84
2019-04-06T04:21:14.566Z,37.76
2019-04-06T04:26:22.161Z,38.11
2019-04-06T04:31:29.800Z,43.30
2019-04-06T04:36:37.388Z,37.62
2019-04-06T04:41:45.013Z,40.45
2019-04-06T04:46:52.804Z,38.95
2019-04-06T04:52:00.398Z,41.29
2019-04-06T04:57:08.135Z,40.83
2019-04-06T05:02:15.651Z,41.47
2019-04-06T05:07:23.222Z,40.20
2019-04-06T05:12:30.869Z,40.45
2019-04-06T05:17:38.448Z,42.94
2019-04-06T05:22:46.107Z,39.00
2019-04-06T05:27:53.700Z,41.34
2019-04-06T05:33:01.354Z,38.49
2019-04-06T05:38:08.961Z,37.84
2019-04-06T05:43:16.714Z,38.65
2019-04-06T05:48:24.193Z,38.62
2019-04-06T05:53:31.939Z,39.19
2019-04-06T05:58:40.662Z,36.61
2019-04-06T06:03:46.687Z,37.62
2019-04-06T06:08:54.276Z,37.34
2019-04-06T06:14:01.908Z,37.05
2019-04-06T06:19:09.515Z,38.60
2019-04-06T06:24:16.971Z,36.81
2019-04-06T06:29:24.637Z,34.77
2019-04-06T06:34:32.194Z,34.90
2019-04-06T06:39:39.804Z,34.42
2019-04-06T06:44:47.454Z,34.22
2019-04-06T06:49:55.048Z,35.45
2019-04-06T06:55:03.008Z,34.11
2019-04-06T07:00:10.361Z,31.81
2019-04-06T07:05:18.126Z,31.80
2019-04-06T07:10:25.709Z,32.29
2019-04-06T07:15:33.318Z,33.82
2019-04-06T07:20:40.911Z,32.55
2019-04-06T07:25:57.327Z,33.14
2019-04-06T07:30:55.725Z,31.33
2019-04-06T07:36:03.391Z,30.04
2019-04-06T07:41:11.000Z,31.13
2019-04-06T07:46:18.631Z,30.76
2019-04-06T07:51:26.222Z,30.40
2019-04-06T07:56:33.905Z,30.93
2019-04-06T08:01:41.478Z,30.04
2019-04-06T08:06:49.135Z,28.66
2019-04-06T08:11:56.773Z,29.86
2019-04-06T08:17:04.359Z,28.56
2019-04-06T08:22:11.940Z,27.43
2019-04-06T08:27:19.573Z,28.88
2019-04-06T08:32:27.211Z,27.61
2019-04-06T08:37:34.854Z,24.98
2019-04-06T08:42:42.444Z,27.47
2019-04-06T08:47:50.120Z,28.14
2019-04-06T08:52:57.720Z,24.60
2019-04-06T08:58:05.551Z,26.61
2019-04-06T09:03:12.813Z,26.01
2019-04-06T09:08:20.444Z,25.13
2019-04-06T09:13:28.045Z,24.40
2019-04-06T09:18:35.702Z,25.57
2019-04-06T09:23:43.299Z,24.57
2019-04-06T09:28:51.083Z,23.78
2019-04-06T09:33:58.681Z,25.06
2019-04-06T09:39:06.321Z,25.80
2019-04-06T09:44:13.914Z,25.08
2019-04-06T09:49:21.555Z,26.23
2019-04-06T09:54:29.172Z,26.58
2019-04-06T09:59:37.619Z,30.39
2019-04-06T10:04:43.937Z,30.37
2019-04-06T10:09:51.571Z,31.46
2019-04-06T10:14:59.587Z,33.59
2019-04-06T10:20:06.314Z,32.92
2019-04-06T10:25:13.894Z,32.72
2019-04-06T10:30:21.537Z,33.51
2019-04-06T10:35:29.128Z,33.02
2019-04-06T10:40:36.743Z,32.09
2019-04-06T10:45:44.327Z,32.77
2019-04-06T10:50:52.034Z,34.81
2019-04-06T10:55:59.637Z,34.25
2019-04-06T11:01:07.255Z,34.62
2019-04-06T11:06:14.854Z,36.08
2019-04-06T11:11:22.774Z,33.41
2019-04-06T11:16:29.639Z,34.18
2019-04-06T11:21:37.328Z,34.73
2019-04-06T11:26:44.930Z,35.88
2019-04-06T11:31:52.586Z,35.24
2019-04-06T11:37:00.176Z,36.83
2019-04-06T11:42:07.837Z,34.44
2019-04-06T11:47:15.459Z,38.64
2019-04-06T11:52:23.462Z,38.65
2019-04-06T11:57:30.839Z,37.71
2019-04-06T12:02:38.520Z,40.75
2019-04-06T12:07:46.125Z,37.42
2019-04-06T12:12:55.850Z,38.72
2019-04-06T12:18:01.021Z,40.29
2019-04-06T12:23:08.723Z,39.33
2019-04-06T12:28:16.661Z,42.12
2019-04-06T12:33:24.285Z,43.30
2019-04-06T12:38:31.628Z,41.25
2019-04-06T12:43:39.239Z,40.87
2019-04-06T12:48:46.865Z,38.30
2019-04-06T12:53:54.580Z,40.39
2019-04-06T12:59:02.172Z,41.84
2019-04-06T13:04:09.825Z,39.15
2019-04-06T13:09:17.418Z,39.34
2019-04-06T13:14:25.085Z,38.05
2019-04-06T13:19:32.659Z,37.23
2019-04-06T13:24:40.355Z,36.90
2019-04-06T13:29:47.918Z,37.68
2019-04-06T13:34:56.082Z,38.84
2019-04-06T13:40:02.741Z,35.22
2019-04-06T13:45:10.407Z,35.46
2019-04-06T13:50:18.010Z,34.71
2019-04-06T13:55:25.652Z,36.78
2019-04-06T14:00:33.301Z,32.12
2019-04-06T14:05:40.902Z,31.59
2019-04-06T14:10:48.633Z,29.73
2019-04-06T14:15:56.121Z,29.81
2019-04-06T14:21:03.709Z,30.15
2019-04-06T14:26:11.389Z,29.56
2019-04-06T14:31:27.481Z,30.06
2019-04-06T14:36:26.239Z,28.81
2019-04-06T14:41:33.733Z,29.81
2019-04-06T14:46:41.335Z,29.95
2019-04-06T14:51:48.927Z,30.95
2019-04-06T14:56:57.106Z,27.77
2019-04-06T15:02:03.994Z,29.66
2019-04-06T15:07:12.360Z,27.47
2019-04-06T15:12:18.543Z,25.91
2019-04-06T15:17:26.206Z,27.10
2019-04-06T15:22:34.215Z,24.03
2019-04-06T15:27:40.960Z,24.71
2019-04-06T15:32:48.834Z,24.43
2019-04-06T15:37:56.233Z,24.85
2019-04-06T15:43:04.098Z,24.30
2019-04-06T15:48:11.442Z,22.39
2019-04-06T15:53:19.041Z,22.58
2019-04-06T15:58:27.021Z,23.21
2019-04-06T16:03:34.280Z,22.04
2019-04-06T16:08:41.968Z,22.54
2019-04-06T16:13:49.681Z,22.38
2019-04-06T16:18:57.233Z,25.99
2019-04-06T16:24:04.908Z,21.86
2019-04-06T16:29:13.205Z,19.84
2019-04-06T16:34:19.691Z,22.09
2019-04-06T16:39:27.770Z,23.23
2019-04-06T16:44:34.497Z,22.86
2019-04-06T16:49:42.187Z,23.08
2019-04-06T16:54:49.707Z,32.55
2019-04-06T16:59:57.320Z,43.24
2019-04-06T17:05:04.946Z,42.71
2019-04-06T17:10:12.607Z,46.93
2019-04-06T17:15:20.520Z,48.94
2019-04-06T17:20:27.846Z,46.93
2019-04-06T17:25:35.426Z,46.45
2019-04-06T17:30:43.073Z,47.43
2019-04-06T17:35:50.683Z,46.25
2019-04-06T17:40:58.321Z,45.44
2019-04-06T17:46:06.030Z,46.29
2019-04-06T17:51:13.592Z,44.10
2019-04-06T17:56:21.188Z,44.13
2019-04-06T18:01:28.880Z,43.10
2019-04-06T18:06:36.794Z,45.22
2019-04-06T18:11:44.564Z,41.88
2019-04-06T18:16:51.570Z,41.85
2019-04-06T18:21:58.917Z,38.91
2019-04-06T18:27:06.519Z,33.84
2019-04-06T18:32:14.161Z,34.41
2019-04-06T18:37:21.773Z,34.07
2019-04-06T18:42:29.635Z,34.27
2019-04-06T18:47:37.267Z,35.48
2019-04-06T18:52:45.075Z,35.91
2019-04-06T18:57:52.830Z,35.70
2019-04-06T19:03:11.176Z,35.04
2019-04-06T19:08:07.810Z,36.89
2019-04-06T19:13:15.706Z,38.00
2019-04-06T19:18:23.937Z,38.52
2019-04-06T19:23:30.897Z,38.35
2019-04-06T19:28:38.837Z,37.38
2019-04-06T19:33:46.514Z,37.61
2019-04-06T19:38:54.327Z,40.49
2019-04-06T19:44:02.566Z,40.77
2019-04-06T19:49:09.435Z,38.03
2019-04-06T19:54:17.606Z,39.59
2019-04-06T19:59:25.050Z,40.03
2019-04-06T20:04:32.817Z,39.70
2019-04-06T20:09:40.981Z,38.77
2019-04-06T20:14:48.362Z,38.12
2019-04-06T20:19:55.329Z,39.50
2019-04-06T20:25:03.367Z,39.40
2019-04-06T20:30:10.284Z,41.51
2019-04-06T20:35:18.049Z,42.04
2019-04-06T20:40:25.984Z,40.63
2019-04-06T20:45:33.591Z,43.63
2019-04-06T20:50:40.971Z,42.76
2019-04-06T20:55:48.703Z,43.01
2019-04-06T21:00:56.232Z,41.55
2019-04-06T21:06:04.092Z,44.41
2019-04-06T21:11:11.559Z,42.75
2019-04-06T21:16:19.201Z,43.46
2019-04-06T21:21:26.976Z,42.18
2019-04-06T21:26:34.472Z,41.28
2019-04-06T21:31:42.055Z,41.71
2019-04-06T21:36:49.664Z,42.71
2019-04-06T21:41:57.988Z,41.45
2019-04-06T21:47:07.052Z,46.84
2019-04-06T21:52:11.539Z,44.94
2019-04-06T21:57:19.778Z,43.80
2019-04-06T22:02:26.271Z,43.20
2019-04-06T22:07:33.897Z,45.54
2019-04-06T22:12:41.589Z,41.07
2019-04-06T22:17:49.143Z,41.79
2019-04-06T22:22:57.275Z,39.41
2019-04-06T22:28:03.924Z,37.78
2019-04-06T22:33:11.862Z,40.22
2019-04-06T22:38:19.126Z,36.97
2019-04-06T22:43:26.752Z,35.62
2019-04-06T22:48:34.678Z,41.89
2019-04-06T22:53:41.478Z,40.11
2019-04-06T22:58:49.359Z,37.50
2019-04-06T23:03:57.160Z,38.24
2019-04-06T23:09:04.387Z,37.22
2019-04-06T23:14:11.227Z,37.30
2019-04-06T23:19:18.642Z,37.47
2019-04-06T23:24:26.222Z,38.52
2019-04-06T23:29:33.862Z,36.59
2019-04-06T23:34:41.913Z,37.31
2019-04-06T23:39:49.194Z,36.40
2019-04-06T23:44:55.774Z,40.94
2019-04-06T23:50:03.452Z,40.49
2019-04-06T23:55:11.036Z,38.81
